createdAt,value
2022-11-28T00:00:27.866Z,7.65
2022-11-28T00:05:31.420Z,8.20
2022-11-28T00:10:38.652Z,7.65
2022-11-28T00:15:43.973Z,7.88
2022-11-28T00:20:47.805Z,7.65
2022-11-28T00:25:58.793Z,7.97
2022-11-28T00:31:04.307Z,8.75
2022-11-28T00:36:08.538Z,9.75
2022-11-28T00:41:14.775Z,7.93
2022-11-28T00:46:21.435Z,8.05
2022-11-28T00:51:26.516Z,7.05
2022-11-28T00:56:32.325Z,7.07
2022-11-28T01:01:39.785Z,7.30
2022-11-28T01:06:44.964Z,7.22
2022-11-28T01:11:49.415Z,7.57
2022-11-28T01:16:54.619Z,7.70
2022-11-28T01:21:58.164Z,6.87
2022-11-28T01:27:01.724Z,6.90
2022-11-28T01:32:06.994Z,6.20
2022-11-28T01:37:10.524Z,6.27
2022-11-28T01:42:18.588Z,5.82
2022-11-28T01:47:31.080Z,5.70
2022-11-28T01:52:36.926Z,6.18
2022-11-28T01:57:41.376Z,7.22
2022-11-28T02:02:49.592Z,10.52
2022-11-28T02:07:53.597Z,18.20
2022-11-28T02:13:26.299Z,14.07
2022-11-28T02:18:50.725Z,10.85
2022-11-28T02:24:18.837Z,10.18
2022-11-28T02:29:51.934Z,8.18
2022-11-28T02:35:03.675Z,11.45
2022-11-28T02:40:16.223Z,8.95
2022-11-28T02:45:30.165Z,12.50
2022-11-28T02:50:41.113Z,10.20
2022-11-28T02:55:45.598Z,7.40
2022-11-28T03:00:51.436Z,7.47
2022-11-28T03:06:03.383Z,7.43
2022-11-28T03:11:16.282Z,8.77
2022-11-28T03:16:27.942Z,8.50
2022-11-28T03:21:39.801Z,8.10
2022-11-28T03:26:53.384Z,7.68
2022-11-28T03:32:01.960Z,8.02
2022-11-28T03:37:12.170Z,7.13
2022-11-28T03:42:21.811Z,7.07
2022-11-28T03:47:27.943Z,7.43
2022-11-28T03:52:37.842Z,7.18
2022-11-28T03:57:45.946Z,7.57
2022-11-28T04:02:58.044Z,6.88
2022-11-28T04:08:11.932Z,7.40
2022-11-28T04:13:22.236Z,6.80
2022-11-28T04:18:30.472Z,6.43
2022-11-28T04:23:38.630Z,6.53
2022-11-28T04:28:43.690Z,6.18
2022-11-28T04:33:52.170Z,6.75
2022-11-28T04:38:59.991Z,5.68
2022-11-28T04:44:09.624Z,5.00
2022-11-28T04:49:13.856Z,5.78
2022-11-28T04:54:25.128Z,5.50
2022-11-28T04:59:31.731Z,5.03
2022-11-28T05:04:37.599Z,5.05
2022-11-28T05:09:42.812Z,5.22
2022-11-28T05:14:46.402Z,4.68
2022-11-28T05:19:49.951Z,5.00
2022-11-28T05:24:55.146Z,4.97
2022-11-28T05:29:58.705Z,5.00
2022-11-28T05:35:02.283Z,5.25
2022-11-28T05:40:10.599Z,4.53
2022-11-28T05:45:14.145Z,5.13
2022-11-28T05:50:17.788Z,4.85
2022-11-28T05:55:22.999Z,4.72
2022-11-28T06:00:26.736Z,5.32
2022-11-28T06:05:42.113Z,4.68
2022-11-28T06:10:57.435Z,4.60
2022-11-28T06:16:01.055Z,4.90
2022-11-28T06:21:05.589Z,4.63
2022-11-28T06:26:12.368Z,5.10
2022-11-28T06:31:17.396Z,5.57
2022-11-28T06:36:21.070Z,5.07
2022-11-28T06:41:26.245Z,5.60
2022-11-28T06:46:29.854Z,5.32
2022-11-28T06:51:34.243Z,5.30
2022-11-28T06:56:41.164Z,5.18
2022-11-28T07:01:44.765Z,5.28
2022-11-28T07:06:49.004Z,5.38
2022-11-28T07:11:54.168Z,5.10
2022-11-28T07:16:57.734Z,5.10
2022-11-28T07:22:01.415Z,5.43
2022-11-28T07:27:06.617Z,5.28
2022-11-28T07:32:10.412Z,5.80
2022-11-28T07:37:14.120Z,5.88
2022-11-28T07:42:19.295Z,5.50
2022-11-28T07:47:22.948Z,6.45
2022-11-28T07:52:26.493Z,5.47
2022-11-28T07:57:31.696Z,5.00
2022-11-28T08:02:35.280Z,6.13
2022-11-28T08:07:38.997Z,5.70
2022-11-28T08:12:45.331Z,6.25
2022-11-28T08:17:48.902Z,5.95
2022-11-28T08:22:52.477Z,6.22
2022-11-28T08:27:57.692Z,6.18
2022-11-28T08:33:01.242Z,5.93
2022-11-28T08:38:04.825Z,5.63
2022-11-28T08:43:10.033Z,5.55
2022-11-28T08:48:13.606Z,5.45
2022-11-28T08:53:18.441Z,5.20
2022-11-28T08:58:23.916Z,5.13
2022-11-28T09:03:27.599Z,5.28
2022-11-28T09:08:31.209Z,5.40
2022-11-28T09:13:36.836Z,5.35
2022-11-28T09:18:40.591Z,5.20
2022-11-28T09:23:45.607Z,5.07
2022-11-28T09:34:17.808Z,4.55
2022-11-28T09:39:21.341Z,4.97
2022-11-28T09:44:34.409Z,4.97
2022-11-28T09:49:45.091Z,5.10
2022-11-28T09:54:53.869Z,4.65
2022-11-28T09:59:59.112Z,4.70
2022-11-28T10:05:10.823Z,4.68
2022-11-28T10:10:23.846Z,4.63
2022-11-28T10:15:36.812Z,4.60
2022-11-28T10:20:44.146Z,4.43
2022-11-28T10:25:51.650Z,4.30
2022-11-28T10:31:02.410Z,4.70
2022-11-28T10:36:07.059Z,4.53
2022-11-28T10:41:18.329Z,4.50
2022-11-28T10:46:38.662Z,4.10
2022-11-28T10:51:49.469Z,3.95
2022-11-28T10:57:02.351Z,3.40
2022-11-28T11:02:22.643Z,3.67
2022-11-28T11:07:30.444Z,3.85
2022-11-28T11:12:36.050Z,3.30
2022-11-28T11:17:41.319Z,3.13
2022-11-28T11:22:55.491Z,3.47
2022-11-28T11:28:01.127Z,3.80
2022-11-28T11:33:14.549Z,3.03
2022-11-28T11:38:27.190Z,3.60
2022-11-28T11:43:32.149Z,3.22
2022-11-28T11:48:42.137Z,3.05
2022-11-28T11:53:45.937Z,3.05
2022-11-28T11:58:54.533Z,2.85
2022-11-28T12:04:13.296Z,2.85
2022-11-28T12:09:30.128Z,2.80
2022-11-28T12:14:35.149Z,2.60
2022-11-28T12:19:55.329Z,2.90
2022-11-28T12:25:11.007Z,2.40
2022-11-28T12:30:27.364Z,1.80
2022-11-28T12:35:39.543Z,2.50
2022-11-28T12:40:58.340Z,1.70
2022-11-28T12:46:12.091Z,1.17
2022-11-28T12:51:27.854Z,1.38
2022-11-28T12:56:42.166Z,1.00
2022-11-28T13:02:03.978Z,1.08
2022-11-28T13:07:23.395Z,1.08
2022-11-28T13:17:43.501Z,1.20
2022-11-28T13:23:09.616Z,1.17
2022-11-28T13:28:21.533Z,0.70
2022-11-28T13:33:40.066Z,0.50
2022-11-28T13:39:12.460Z,0.77
2022-11-28T13:44:22.482Z,0.93
2022-11-28T13:49:27.417Z,0.70
2022-11-28T13:54:43.391Z,0.60
2022-11-28T13:59:51.784Z,0.68
2022-11-28T14:04:55.567Z,0.30
2022-11-28T14:10:33.677Z,0.73
2022-11-28T14:15:47.342Z,0.70
2022-11-28T14:20:58.044Z,0.60
2022-11-28T14:26:12.582Z,0.55
2022-11-28T14:31:26.270Z,0.60
2022-11-28T14:36:31.527Z,0.43
2022-11-28T14:42:51.915Z,0.75
2022-11-28T14:48:18.730Z,0.50
2022-11-28T14:53:54.845Z,0.30
2022-11-28T14:59:03.212Z,0.70
2022-11-28T15:04:27.926Z,0.30
2022-11-28T15:09:38.773Z,0.50
2022-11-28T15:14:47.965Z,0.43
2022-11-28T15:19:52.375Z,0.35
2022-11-28T15:25:01.501Z,0.60
2022-11-28T15:30:19.343Z,0.60
2022-11-28T15:35:22.965Z,0.60
2022-11-28T15:40:29.736Z,0.50
2022-11-28T15:45:36.361Z,0.95
2022-11-28T15:50:51.219Z,0.77
2022-11-28T15:56:11.881Z,0.85
2022-11-28T16:01:20.039Z,0.95
2022-11-28T16:06:25.886Z,0.90
2022-11-28T16:11:31.084Z,0.60
2022-11-28T16:16:39.200Z,1.00
2022-11-28T16:21:51.075Z,0.50
2022-11-28T16:26:57.202Z,0.30
2022-11-28T16:32:21.907Z,0.40
2022-11-28T16:37:27.721Z,0.30
2022-11-28T16:42:32.094Z,0.57
2022-11-28T16:47:37.380Z,0.30
2022-11-28T16:52:46.893Z,0.43
2022-11-28T16:57:57.703Z,0.60
2022-11-28T17:03:02.973Z,0.40
2022-11-28T17:08:08.175Z,0.37
2022-11-28T17:13:13.587Z,0.30
2022-11-28T17:18:18.764Z,0.90
2022-11-28T17:23:22.392Z,0.57
2022-11-28T17:28:29.125Z,0.57
2022-11-28T17:33:34.561Z,0.50
2022-11-28T17:38:38.139Z,0.33
2022-11-28T17:43:42.216Z,0.60
2022-11-28T17:48:47.471Z,0.30
2022-11-28T17:53:51.027Z,0.30
2022-11-28T17:58:54.715Z,0.30
2022-11-28T18:04:00.684Z,0.40
2022-11-28T18:14:18.120Z,0.30
2022-11-28T18:19:24.859Z,0.30
2022-11-28T18:24:28.454Z,0.20
2022-11-28T18:29:32.101Z,0.40
2022-11-28T18:34:38.408Z,0.20
2022-11-28T18:39:42.346Z,0.40
2022-11-28T18:44:46.121Z,1.20
2022-11-28T18:49:52.324Z,0.50
2022-11-28T18:54:56.064Z,0.50
2022-11-28T19:00:00.258Z,0.40
2022-11-28T19:05:06.469Z,0.55
2022-11-28T19:10:10.897Z,0.35
2022-11-28T19:15:14.501Z,0.63
2022-11-28T19:20:19.862Z,0.43
2022-11-28T19:25:23.387Z,0.38
2022-11-28T19:30:26.951Z,0.30
2022-11-28T19:35:33.557Z,0.45
2022-11-28T19:40:39.656Z,0.38
2022-11-28T19:45:43.285Z,0.40
2022-11-28T19:50:52.159Z,0.28
2022-11-28T19:55:55.774Z,0.40
2022-11-28T20:01:04.999Z,0.57
2022-11-28T20:06:11.704Z,0.38
2022-11-28T20:11:17.482Z,0.45
2022-11-28T20:21:26.997Z,1.45
2022-11-28T20:26:31.114Z,0.55
2022-11-28T20:31:36.881Z,0.65
2022-11-28T20:41:45.908Z,1.00
2022-11-28T20:46:49.507Z,1.00
2022-11-28T20:51:54.717Z,1.45
2022-11-28T20:57:20.257Z,1.30
2022-11-28T21:02:22.780Z,1.70
2022-11-28T21:07:28.098Z,1.67
2022-11-28T21:12:31.806Z,1.97
2022-11-28T21:17:35.397Z,1.48
2022-11-28T21:22:40.610Z,1.95
2022-11-28T21:27:44.193Z,1.80
2022-11-28T21:32:47.769Z,2.00
2022-11-28T21:37:53.044Z,1.95
2022-11-28T21:42:57.000Z,2.57
2022-11-28T21:48:00.771Z,2.08
2022-11-28T21:53:06.046Z,1.88
2022-11-28T21:58:09.748Z,1.83
2022-11-28T22:03:14.481Z,2.60
2022-11-28T22:08:20.008Z,2.33
2022-11-28T22:13:23.735Z,2.80
2022-11-28T22:18:29.176Z,2.38
2022-11-28T22:23:37.383Z,2.40
2022-11-28T22:28:47.867Z,2.55
2022-11-28T22:33:56.901Z,2.22
2022-11-28T22:39:02.276Z,2.17
2022-11-28T22:44:06.350Z,2.08
2022-11-28T22:49:10.902Z,2.45
2022-11-28T22:54:16.187Z,2.05
2022-11-28T22:59:20.035Z,2.10
2022-11-28T23:04:23.572Z,2.33
2022-11-28T23:09:28.858Z,2.55
2022-11-28T23:14:32.565Z,2.33
2022-11-28T23:19:36.430Z,2.25
2022-11-28T23:24:41.968Z,1.90
2022-11-28T23:34:48.791Z,1.70
2022-11-28T23:39:54.007Z,1.80
2022-11-28T23:44:57.617Z,1.90
2022-11-28T23:50:01.255Z,2.03
2022-11-28T23:55:07.570Z,2.08
